Time;durP1;ratioP1;P1;durP2;ratioP2;P2;SDS_P1;SDS_P2;PMS_P1;PMS_P2;Temp;Humidity;BMP_temperature;BMP_pressure;BME280_temperature;BME280_humidity;BME280_pressure;Samples;Min_cycle;Max_cycle;Signal;HPM_P1;HPM_P2
2022/06/09 00:00:42;;;;;;;8.85;5.37;;;;;;;20.75;56.23;99355.63;1652383;86;20925;-82
2022/06/09 00:03:18;;;;;;;6.83;5.80;;;;;;;20.73;56.31;99359.23;1648881;86;20975;-71
2022/06/09 00:05:44;;;;;;;8.15;5.40;;;;;;;20.71;56.41;99355.48;1671019;85;21059;-72
2022/06/09 00:08:12;;;;;;;11.20;5.30;;;;;;;20.66;56.42;99362.48;1609736;89;21119;-72
2022/06/09 00:10:43;;;;;;;7.50;4.78;;;;;;;20.63;56.56;99365.04;1653762;86;21563;-72
2022/06/09 00:13:11;;;;;;;7.67;5.17;;;;;;;20.61;56.48;99357.19;1653110;86;21031;-72
2022/06/09 00:15:38;;;;;;;6.55;5.03;;;;;;;20.60;56.40;99357.50;1599418;89;21666;-73
2022/06/09 00:18:06;;;;;;;10.85;5.45;;;;;;;20.59;56.49;99363.53;1671238;85;21023;-75
2022/06/09 00:20:32;;;;;;;8.65;5.28;;;;;;;20.50;56.68;99358.64;1680669;85;21150;-77
2022/06/09 00:22:59;;;;;;;11.18;4.97;;;;;;;20.40;57.21;99366.60;1662438;85;21004;-77
2022/06/09 00:25:28;;;;;;;7.75;5.72;;;;;;;20.31;57.30;99360.34;1653565;86;20932;-75
2022/06/09 00:27:54;;;;;;;12.55;5.97;;;;;;;20.27;57.27;99357.18;1634939;86;21055;-78
2022/06/09 00:30:21;;;;;;;11.33;6.70;;;;;;;20.22;57.08;99358.70;1610608;89;21127;-77
2022/06/09 00:32:48;;;;;;;7.58;5.78;;;;;;;20.21;57.01;99357.09;1652291;86;21608;-74
2022/06/09 00:35:15;;;;;;;10.60;6.40;;;;;;;20.19;57.03;99356.04;1675859;85;20957;-74
2022/06/09 00:37:41;;;;;;;8.50;6.53;;;;;;;20.18;57.08;99355.02;1633223;87;21048;-74
2022/06/09 00:40:11;;;;;;;13.93;6.15;;;;;;;20.16;57.35;99355.89;1636121;87;20968;-77
2022/06/09 00:42:37;;;;;;;11.08;7.67;;;;;;;20.16;57.35;99355.89;1635358;87;21623;-75
2022/06/09 00:45:37;;;;;;;9.73;6.40;;;;;;;20.13;57.60;99354.62;1615549;87;21112;-74
2022/06/09 00:48:20;;;;;;;9.80;6.87;;;;;;;20.11;57.79;99351.95;1587787;89;21047;-72
2022/06/09 00:50:51;;;;;;;16.12;7.70;;;;;;;20.05;57.96;99355.98;1652672;86;21104;-72
2022/06/09 00:53:22;;;;;;;13.18;6.67;;;;;;;19.97;58.34;99352.11;1593008;89;21602;-73
2022/06/09 00:55:50;;;;;;;15.98;9.05;;;;;;;19.90;58.61;99356.66;1653958;86;21072;-74
2022/06/09 00:58:21;;;;;;;7.80;6.33;;;;;;;19.84;58.90;99356.59;1610639;89;21206;-72
2022/06/09 01:00:55;;;;;;;8.35;7.03;;;;;;;19.82;59.23;99355.30;1647852;85;21516;-73
2022/06/09 01:03:30;;;;;;;14.25;7.45;;;;;;;19.78;59.38;99359.78;1629434;86;21066;-74
2022/06/09 01:06:20;;;;;;;9.95;6.78;;;;;;;19.74;59.62;99354.73;1610544;88;21078;-72
2022/06/09 01:08:54;;;;;;;11.25;6.55;;;;;;;19.69;59.93;99355.68;1610197;89;21055;-73
2022/06/09 01:11:21;;;;;;;11.12;6.00;;;;;;;19.62;60.31;99357.25;1652780;86;21173;-75
2022/06/09 01:13:49;;;;;;;10.43;7.10;;;;;;;19.57;60.49;99350.02;1611700;87;21137;-82
2022/06/09 01:16:30;;;;;;;9.23;6.35;;;;;;;19.53;60.64;99350.41;1614251;86;21537;-79
2022/06/09 01:19:32;;;;;;;10.90;7.12;;;;;;;19.51;60.92;99352.67;1609365;88;21028;-82
2022/06/09 01:22:39;;;;;;;9.05;6.83;;;;;;;19.48;61.05;99353.29;1613625;87;21146;-86
2022/06/09 01:25:37;;;;;;;11.00;6.65;;;;;;;19.47;60.83;99348.98;1681916;85;21017;-81
2022/06/09 01:28:25;;;;;;;9.60;6.03;;;;;;;19.52;60.37;99357.80;1660322;85;21485;-77
2022/06/09 01:31:05;;;;;;;13.90;7.15;;;;;;;19.56;60.26;99354.70;1610604;88;21034;-75
2022/06/09 01:33:43;;;;;;;15.68;6.85;;;;;;;19.59;60.02;99354.05;1652382;85;21378;-75
2022/06/09 01:36:23;;;;;;;12.95;6.37;;;;;;;19.63;59.91;99345.22;1637200;87;21084;-73
2022/06/09 01:38:53;;;;;;;8.93;5.20;;;;;;;19.62;60.01;99345.78;1681791;85;21540;-83
2022/06/09 01:41:22;;;;;;;11.40;5.58;;;;;;;19.59;59.87;99345.06;1616847;86;21571;-81
2022/06/09 01:43:49;;;;;;;7.45;4.85;;;;;;;19.58;59.46;99342.89;1604384;88;21046;-83
2022/06/09 01:46:30;;;;;;;9.23;4.67;;;;;;;19.61;59.57;99343.39;1604727;89;21567;-83
2022/06/09 01:49:06;;;;;;;14.50;6.25;;;;;;;19.61;59.38;99341.47;1603936;89;21058;-85
2022/06/09 01:51:35;;;;;;;8.38;5.35;;;;;;;19.62;59.12;99345.78;1603190;89;21257;-80
2022/06/09 01:54:08;;;;;;;10.72;6.37;;;;;;;19.58;59.34;99346.18;1603701;89;21086;-77
2022/06/09 01:56:49;;;;;;;11.05;5.50;;;;;;;19.57;59.41;99353.55;1604821;89;21026;-76
2022/06/09 01:59:38;;;;;;;11.88;6.28;;;;;;;19.59;59.55;99346.43;1612489;88;21063;-72
2022/06/09 02:02:13;;;;;;;9.53;5.08;;;;;;;19.54;59.67;99344.66;1603328;89;21023;-71
2022/06/09 02:04:44;;;;;;;9.80;5.28;;;;;;;19.53;59.53;99348.50;1603172;89;21935;-68
2022/06/09 02:07:14;;;;;;;6.42;5.10;;;;;;;19.53;59.37;99348.50;1604550;89;21584;-75
2022/06/09 02:09:40;;;;;;;10.85;6.50;;;;;;;19.55;59.40;99353.64;1604640;89;21027;-72
2022/06/09 02:12:12;;;;;;;8.58;5.22;;;;;;;19.55;59.60;99351.72;1604861;89;21134;-74
2022/06/09 02:14:46;;;;;;;10.43;5.70;;;;;;;19.55;59.12;99350.36;1617030;88;20943;-75
2022/06/09 02:17:14;;;;;;;8.55;5.28;;;;;;;19.55;59.09;99350.36;1603159;89;20966;-75
2022/06/09 02:19:42;;;;;;;7.95;5.05;;;;;;;19.54;59.13;99348.75;1603296;89;21015;-74
2022/06/09 02:22:11;;;;;;;15.05;5.67;;;;;;;19.55;59.24;99359.09;1618398;88;21062;-74
2022/06/09 02:24:37;;;;;;;10.45;6.83;;;;;;;19.55;59.50;99353.09;1630690;88;21007;-76
2022/06/09 02:27:05;;;;;;;7.92;5.80;;;;;;;19.55;59.62;99355.81;1609658;88;21111;-77
2022/06/09 02:29:34;;;;;;;10.60;5.75;;;;;;;19.56;59.77;99364.81;1599021;88;21267;-77
2022/06/09 02:32:00;;;;;;;7.70;5.30;;;;;;;19.55;59.96;99355.81;1599379;89;20964;-78
2022/06/09 02:34:27;;;;;;;6.75;5.42;;;;;;;19.52;59.83;99358.34;1604406;89;21566;-77
2022/06/09 02:36:53;;;;;;;10.32;5.95;;;;;;;19.51;59.63;99361.67;1605155;89;21060;-76
2022/06/09 02:39:20;;;;;;;7.37;5.55;;;;;;;19.50;59.63;99359.25;1604769;89;20998;-75
2022/06/09 02:41:47;;;;;;;11.40;5.25;;;;;;;19.50;59.27;99360.05;1603933;88;21218;-75
2022/06/09 02:44:14;;;;;;;12.47;5.35;;;;;;;19.52;59.56;99370.07;1623447;88;21051;-77
2022/06/09 02:46:40;;;;;;;10.70;5.05;;;;;;;19.51;59.56;99369.04;1630660;87;20979;-76
2022/06/09 02:49:07;;;;;;;9.68;5.22;;;;;;;19.50;59.70;99377.78;1605943;88;21099;-78
2022/06/09 02:51:35;;;;;;;6.45;5.33;;;;;;;19.50;59.80;99372.33;1603310;89;21653;-78
2022/06/09 02:54:05;;;;;;;11.40;5.75;;;;;;;19.48;59.79;99371.83;1603419;89;21063;-80
2022/06/09 02:56:32;;;;;;;8.28;5.00;;;;;;;19.49;59.93;99375.36;1603161;89;21023;-78
2022/06/09 02:58:59;;;;;;;7.17;5.37;;;;;;;19.49;60.04;99379.45;1603688;89;20955;-79
2022/06/09 03:01:26;;;;;;;8.60;6.53;;;;;;;19.49;60.44;99383.55;1603618;89;21027;-79
2022/06/09 03:03:53;;;;;;;8.43;5.42;;;;;;;19.47;60.68;99374.89;1603626;89;21024;-77
2022/06/09 03:06:20;;;;;;;10.43;5.70;;;;;;;19.47;61.00;99379.77;1603350;89;21208;-79
2022/06/09 03:08:48;;;;;;;11.40;6.90;;;;;;;19.46;61.10;99377.38;1603658;89;20936;-80
2022/06/09 03:11:16;;;;;;;9.73;6.22;;;;;;;19.44;61.25;99382.32;1603288;88;21227;-79
2022/06/09 03:13:44;;;;;;;7.35;5.70;;;;;;;19.45;61.27;99378.48;1615100;88;21517;-77
2022/06/09 03:16:13;;;;;;;12.18;6.00;;;;;;;19.42;61.25;99378.53;1603464;89;21404;-78
2022/06/09 03:18:39;;;;;;;12.07;6.83;;;;;;;19.41;61.37;99375.56;1603532;89;21114;-78
2022/06/09 03:21:06;;;;;;;13.50;6.60;;;;;;;19.43;61.25;99377.95;1604731;89;21587;-79
2022/06/09 03:23:32;;;;;;;7.25;4.70;;;;;;;19.46;61.18;99380.09;1604901;89;21038;-79
2022/06/09 03:25:59;;;;;;;7.00;5.25;;;;;;;19.50;60.96;99380.52;1604339;89;20924;-78
2022/06/09 03:28:26;;;;;;;9.13;5.83;;;;;;;19.55;60.76;99376.83;1604427;89;21087;-81
2022/06/09 03:30:52;;;;;;;5.83;5.20;;;;;;;19.62;60.91;99386.70;1599481;88;21831;-82
2022/06/09 03:33:21;;;;;;;12.98;5.33;;;;;;;19.65;60.95;99379.83;1630825;87;21143;-81
2022/06/09 03:35:50;;;;;;;13.20;6.20;;;;;;;19.67;61.17;99378.38;1590347;89;21575;-82
2022/06/09 03:38:17;;;;;;;11.70;5.42;;;;;;;19.72;61.07;99378.23;1604774;89;21075;-83
2022/06/09 03:40:45;;;;;;;6.55;5.05;;;;;;;19.78;60.62;99375.61;1604981;89;21098;-83
2022/06/09 03:43:12;;;;;;;6.67;5.55;;;;;;;19.84;60.11;99378.99;1604396;89;21632;-83
2022/06/09 03:45:39;;;;;;;7.28;5.53;;;;;;;19.90;59.72;99377.14;1603433;89;20936;-82
2022/06/09 03:48:05;;;;;;;7.40;4.28;;;;;;;19.95;59.27;99375.63;1628175;88;21528;-83
2022/06/09 03:50:32;;;;;;;7.30;4.72;;;;;;;20.01;58.54;99374.35;1624921;87;21011;-82
2022/06/09 03:53:01;;;;;;;5.70;5.15;;;;;;;20.07;57.98;99370.10;1604177;88;21628;-84
2022/06/09 03:55:32;;;;;;;8.18;4.40;;;;;;;20.13;57.57;99368.27;1604819;89;21287;-85
2022/06/09 03:58:01;;;;;;;4.37;3.98;;;;;;;20.19;57.04;99368.33;1604734;89;21591;-85
2022/06/09 04:00:30;;;;;;;8.30;4.78;;;;;;;20.28;56.35;99377.91;1603258;89;21566;-78
2022/06/09 04:02:58;;;;;;;7.55;4.25;;;;;;;20.35;55.78;99374.96;1582580;89;21091;-77
2022/06/09 04:05:25;;;;;;;5.62;4.50;;;;;;;20.42;55.38;99371.20;1612000;88;21118;-78
2022/06/09 04:07:52;;;;;;;5.22;4.10;;;;;;;20.50;54.49;99373.66;1630034;87;21243;-79
2022/06/09 04:10:22;;;;;;;10.15;4.80;;;;;;;20.58;53.70;99368.75;1619010;88;21089;-77
2022/06/09 04:12:51;;;;;;;6.08;4.25;;;;;;;20.67;53.32;99368.75;1603523;89;21593;-78
2022/06/09 04:15:19;;;;;;;17.80;4.25;;;;;;;20.74;52.90;99367.69;1603504;89;21079;-78
2022/06/09 04:17:46;;;;;;;5.42;3.60;;;;;;;20.83;52.37;99367.09;1570556;89;21148;-80
2022/06/09 04:20:17;;;;;;;5.25;4.75;;;;;;;20.93;51.98;99361.84;1603759;89;20979;-76
2022/06/09 04:22:44;;;;;;;4.87;3.70;;;;;;;21.04;51.83;99359.01;1623880;88;21016;-78
2022/06/09 04:25:11;;;;;;;8.98;3.37;;;;;;;21.13;51.74;99359.78;1612793;88;21575;-81
2022/06/09 04:27:39;;;;;;;8.15;4.35;;;;;;;21.23;51.26;99363.55;1607101;88;21501;-78
2022/06/09 04:30:08;;;;;;;5.00;3.77;;;;;;;21.35;51.11;99358.73;1609099;88;21095;-77
2022/06/09 04:32:35;;;;;;;4.60;4.05;;;;;;;21.44;51.09;99358.16;1594139;88;21254;-80
2022/06/09 04:35:02;;;;;;;6.47;3.40;;;;;;;21.51;51.08;99359.80;1631429;88;20987;-80
2022/06/09 04:40:16;;;;;;;5.03;4.15;;;;;;;21.65;50.87;99357.62;1611891;88;20998;-81
2022/06/09 04:42:42;;;;;;;7.78;3.35;;;;;;;21.73;50.44;99362.23;1621622;87;21058;-79
2022/06/09 04:45:10;;;;;;;7.40;3.25;;;;;;;21.81;49.99;99364.13;1608760;89;21184;-79
2022/06/09 04:47:38;;;;;;;9.15;3.42;;;;;;;21.88;49.58;99366.33;1636410;87;20997;-79
2022/06/09 04:50:09;;;;;;;5.35;3.62;;;;;;;21.97;49.18;99365.17;1639808;87;21071;-79
2022/06/09 04:52:36;;;;;;;5.70;3.50;;;;;;;22.05;49.16;99369.80;1640181;87;21517;-80
2022/06/09 04:55:04;;;;;;;3.75;2.60;;;;;;;22.11;49.00;99362.97;1639978;87;21126;-80
2022/06/09 04:57:31;;;;;;;5.08;3.40;;;;;;;22.21;48.78;99365.88;1639933;87;21172;-80
2022/06/09 04:59:58;;;;;;;5.42;3.80;;;;;;;22.30;48.94;99358.38;1613271;87;21138;-81
2022/06/09 05:02:25;;;;;;;3.87;3.50;;;;;;;22.38;48.84;99364.38;1620034;87;21064;-80
2022/06/09 05:04:52;;;;;;;8.25;3.50;;;;;;;22.46;48.38;99368.97;1635757;87;21087;-82
2022/06/09 05:07:19;;;;;;;7.10;3.58;;;;;;;22.54;48.22;99363.97;1591518;89;21138;-81
2022/06/09 05:09:46;;;;;;;6.40;3.80;;;;;;;22.60;48.11;99371.41;1612210;89;21177;-82
2022/06/09 05:12:16;;;;;;;5.25;3.58;;;;;;;22.66;48.00;99367.34;1612547;89;20979;-81
2022/06/09 05:14:45;;;;;;;6.05;4.58;;;;;;;22.72;47.95;99368.77;1612096;89;21600;-82
2022/06/09 05:17:13;;;;;;;6.72;3.87;;;;;;;22.78;47.95;99374.25;1612406;88;21111;-81
2022/06/09 05:19:39;;;;;;;6.60;3.98;;;;;;;22.83;47.93;99372.66;1617277;87;21169;-79
2022/06/09 05:22:06;;;;;;;7.92;3.98;;;;;;;22.91;47.81;99381.39;1637559;87;21572;-80
2022/06/09 05:24:33;;;;;;;9.33;3.33;;;;;;;22.97;47.75;99375.13;1639889;87;21079;-81
2022/06/09 05:27:02;;;;;;;5.03;4.17;;;;;;;23.02;47.82;99370.20;1600388;88;21620;-82
2022/06/09 05:29:29;;;;;;;3.80;3.25;;;;;;;23.09;47.84;99369.64;1611137;89;21036;-83
2022/06/09 05:31:56;;;;;;;8.70;3.20;;;;;;;23.15;47.82;99368.30;1612379;87;22095;-83
2022/06/09 05:34:23;;;;;;;8.45;3.55;;;;;;;23.21;47.67;99373.80;1612324;89;21166;-79
2022/06/09 05:36:50;;;;;;;4.25;3.40;;;;;;;23.28;47.67;99369.09;1613315;89;21079;-81
2022/06/09 05:44:52;;;;;;;4.35;3.15;;;;;;;23.45;47.18;99371.67;1575371;89;21071;-81
2022/06/09 05:47:20;;;;;;;6.35;2.65;;;;;;;23.51;46.62;99373.02;1585032;90;21249;-78
2022/06/09 05:49:51;;;;;;;7.28;3.02;;;;;;;23.59;45.92;99372.70;1596110;89;21027;-77
2022/06/09 05:52:26;;;;;;;2.65;2.45;;;;;;;23.65;45.47;99376.22;1585486;90;21099;-86
2022/06/09 05:54:53;;;;;;;5.28;3.65;;;;;;;23.72;45.36;99371.53;1586067;89;21081;-87
2022/06/09 05:57:21;;;;;;;4.65;2.70;;;;;;;23.80;45.17;99376.09;1586666;90;21047;-89
2022/06/09 05:59:53;;;;;;;3.22;2.90;;;;;;;23.86;44.82;99374.73;1586191;90;21076;-80
2022/06/09 06:02:23;;;;;;;4.17;2.37;;;;;;;23.94;44.29;99374.36;1593766;89;20979;-80
2022/06/09 06:04:51;;;;;;;4.87;2.55;;;;;;;23.99;44.02;99376.30;1611808;89;21015;-79
2022/06/09 06:07:18;;;;;;;14.73;3.08;;;;;;;24.06;43.90;99377.09;1603575;89;21055;-80
2022/06/09 06:09:46;;;;;;;3.42;3.12;;;;;;;24.13;44.01;99373.98;1585164;90;21071;-81
2022/06/09 06:12:16;;;;;;;4.72;2.75;;;;;;;24.21;43.84;99375.03;1588111;89;21579;-81
2022/06/09 06:14:46;;;;;;;11.75;3.87;;;;;;;24.27;43.67;99375.00;1579853;90;21042;-82
2022/06/09 06:17:15;;;;;;;11.88;4.80;;;;;;;24.35;43.40;99380.95;1603498;89;21110;-81
2022/06/09 06:19:41;;;;;;;9.88;3.92;;;;;;;24.42;42.97;99383.89;1603511;89;21071;-81
2022/06/09 06:22:10;;;;;;;8.90;3.05;;;;;;;24.49;42.86;99386.05;1603475;89;21102;-78
2022/06/09 06:24:44;;;;;;;5.50;2.87;;;;;;;24.54;42.69;99381.67;1568931;91;21419;-80
2022/06/09 06:27:15;;;;;;;4.10;3.00;;;;;;;24.64;42.50;99384.73;1605849;89;20991;-81
2022/06/09 06:29:49;;;;;;;9.73;2.60;;;;;;;24.72;42.22;99380.21;1593388;89;21063;-79
2022/06/09 06:32:19;;;;;;;4.60;2.15;;;;;;;24.80;41.95;99382.57;1611959;89;21115;-82
2022/06/09 06:34:51;;;;;;;2.52;2.27;;;;;;;24.87;41.79;99379.48;1611902;89;21015;-81
2022/06/09 06:37:20;;;;;;;11.73;3.05;;;;;;;24.95;41.55;99386.77;1595113;89;21456;-83
2022/06/09 06:39:52;;;;;;;3.52;2.05;;;;;;;25.03;41.30;99383.64;1563726;90;21192;-82
2022/06/09 06:42:18;;;;;;;6.28;2.70;;;;;;;25.09;41.16;99376.70;1590606;87;21073;-82
2022/06/09 06:44:45;;;;;;;12.13;4.00;;;;;;;25.18;41.05;99380.08;1603432;88;21064;-81
2022/06/09 06:47:18;;;;;;;3.80;2.95;;;;;;;25.25;40.81;99380.85;1613658;88;21068;-83
2022/06/09 06:49:45;;;;;;;5.72;2.60;;;;;;;25.33;40.57;99379.87;1609058;88;21096;-79
2022/06/09 06:52:11;;;;;;;3.35;2.40;;;;;;;25.40;40.35;99382.81;1603810;89;21043;-80
2022/06/09 06:54:40;;;;;;;9.45;2.75;;;;;;;25.49;40.14;99384.80;1603545;89;20988;-78
2022/06/09 06:57:08;;;;;;;3.00;1.67;;;;;;;25.56;40.04;99378.91;1603687;89;21077;-80
2022/06/09 06:59:35;;;;;;;9.73;2.47;;;;;;;25.64;39.36;99374.38;1591084;89;21553;-82
2022/06/09 07:02:02;;;;;;;3.55;2.55;;;;;;;25.72;39.73;99377.52;1602332;89;21159;-78
2022/06/09 07:04:29;;;;;;;11.95;2.77;;;;;;;25.79;39.95;99371.38;1594432;89;21061;-82
2022/06/09 07:06:57;;;;;;;6.03;2.37;;;;;;;25.86;40.05;99375.66;1603179;88;21524;-80
2022/06/09 07:09:23;;;;;;;7.25;2.47;;;;;;;25.91;39.82;99367.92;1603813;89;21068;-80
2022/06/09 07:11:50;;;;;;;6.72;3.47;;;;;;;25.97;40.21;99370.63;1601421;89;21052;-82
2022/06/09 07:14:16;;;;;;;21.33;13.38;;;;;;;26.04;40.48;99369.99;1600246;89;21122;-79
2022/06/09 07:16:43;;;;;;;7.12;4.83;;;;;;;26.10;40.37;99372.66;1601462;89;21124;-79
2022/06/09 07:19:12;;;;;;;7.30;3.25;;;;;;;26.19;40.12;99376.58;1597654;89;21104;-80
2022/06/09 07:21:40;;;;;;;3.47;3.02;;;;;;;26.27;39.45;99374.25;1580096;89;21056;-79
2022/06/09 07:24:07;;;;;;;2.42;2.22;;;;;;;26.37;39.66;99382.75;1596617;89;21012;-81
2022/06/09 07:26:33;;;;;;;8.98;2.37;;;;;;;26.46;39.83;99386.09;1595846;89;21121;-79
2022/06/09 07:29:00;;;;;;;5.65;2.95;;;;;;;26.50;39.20;99382.59;1592893;89;21080;-78
2022/06/09 07:31:27;;;;;;;7.78;2.55;;;;;;;26.54;39.46;99386.22;1610801;88;21088;-78
2022/06/09 07:33:54;;;;;;;2.87;2.55;;;;;;;26.60;39.80;99387.53;1630760;87;20973;-77
2022/06/09 07:36:22;;;;;;;3.17;2.08;;;;;;;26.68;40.05;99392.82;1628114;88;21535;-76
2022/06/09 07:38:49;;;;;;;9.65;3.47;;;;;;;26.75;39.73;99386.66;1628747;86;21795;-77
2022/06/09 07:41:19;;;;;;;4.15;2.40;;;;;;;26.84;39.56;99383.08;1610775;88;21107;-77
2022/06/09 07:43:45;;;;;;;4.70;2.42;;;;;;;26.93;38.86;99383.67;1608411;88;21052;-78
2022/06/09 07:46:11;;;;;;;8.00;2.58;;;;;;;27.01;38.85;99386.77;1651181;86;35078;-82
2022/06/09 07:48:39;;;;;;;7.75;4.45;;;;;;;27.09;38.22;99388.52;1649886;86;21116;-81
2022/06/09 07:51:06;;;;;;;4.10;2.62;;;;;;;27.13;36.49;99392.72;1609477;89;21272;-83
2022/06/09 07:53:34;;;;;;;7.70;3.05;;;;;;;27.15;36.00;99393.92;1609295;89;21063;-80
2022/06/09 07:56:00;;;;;;;3.12;1.62;;;;;;;27.20;35.40;99392.83;1609854;89;21062;-79
2022/06/09 07:58:29;;;;;;;7.00;1.92;;;;;;;27.28;35.83;99395.94;1652799;86;21103;-79
2022/06/09 08:00:55;;;;;;;6.20;2.45;;;;;;;27.34;34.27;99391.69;1614536;87;21481;-76
2022/06/09 08:03:25;;;;;;;2.58;2.37;;;;;;;27.38;34.77;99391.19;1614688;87;22116;-78
2022/06/09 08:05:52;;;;;;;4.67;2.92;;;;;;;27.44;34.87;99389.69;1649359;86;21014;-78
2022/06/09 08:08:21;;;;;;;3.55;1.77;;;;;;;27.51;34.86;99388.47;1644775;87;21042;-81
2022/06/09 08:10:47;;;;;;;2.85;2.27;;;;;;;27.56;35.22;99393.69;1666344;85;21043;-80
2022/06/09 08:13:15;;;;;;;4.60;1.87;;;;;;;27.63;35.40;99391.59;1609757;89;21058;-82
2022/06/09 08:15:43;;;;;;;8.68;2.50;;;;;;;27.72;34.12;99397.69;1653751;86;21125;-79
2022/06/09 08:18:14;;;;;;;3.85;2.33;;;;;;;27.79;33.55;99394.22;1623216;87;20972;-81
2022/06/09 08:20:42;;;;;;;1.92;1.82;;;;;;;27.82;33.36;99398.41;1677987;85;21047;-79
2022/06/09 08:23:16;;;;;;;2.90;2.70;;;;;;;27.86;33.61;99397.11;1653377;86;21047;-79
2022/06/09 08:25:44;;;;;;;3.72;2.27;;;;;;;27.89;33.90;99393.00;1611313;87;21553;-78
2022/06/09 08:28:11;;;;;;;3.65;2.58;;;;;;;27.98;33.87;99387.20;1626807;87;21115;-77
2022/06/09 08:30:37;;;;;;;4.12;3.00;;;;;;;28.07;33.66;99396.81;1637182;86;21062;-77
2022/06/09 08:33:05;;;;;;;3.72;2.77;;;;;;;28.16;33.81;99400.71;1651023;85;21123;-80
2022/06/09 08:35:34;;;;;;;5.55;2.22;;;;;;;28.27;34.46;99396.13;1617573;86;21064;-82
2022/06/09 08:38:02;;;;;;;2.30;2.12;;;;;;;28.38;33.41;99394.31;1609597;88;20976;-82
2022/06/09 08:40:56;;;;;;;6.17;2.35;;;;;;;28.41;33.10;99392.16;1608116;88;21215;-82
2022/06/09 08:43:32;;;;;;;6.22;2.98;;;;;;;28.35;33.75;99397.81;1603602;87;21111;-75
2022/06/09 08:46:07;;;;;;;3.42;2.95;;;;;;;28.38;34.35;99392.92;1614425;87;21023;-80
2022/06/09 08:48:40;;;;;;;2.90;2.12;;;;;;;28.41;34.78;99396.31;1611149;88;21702;-80
2022/06/09 08:51:23;;;;;;;2.87;2.45;;;;;;;28.51;34.91;99389.32;1619650;87;21078;-81
2022/06/09 08:53:58;;;;;;;4.80;2.35;;;;;;;28.56;34.80;99385.64;1596923;89;22467;-81
2022/06/09 08:56:28;;;;;;;4.87;2.47;;;;;;;28.59;34.36;99390.98;1605099;89;21034;-82
2022/06/09 08:59:12;;;;;;;2.05;1.90;;;;;;;28.65;33.47;99386.72;1606736;89;21123;-84
2022/06/09 09:01:42;;;;;;;3.02;1.87;;;;;;;28.70;33.46;99383.62;1605424;89;21130;-78
2022/06/09 09:04:20;;;;;;;2.92;1.87;;;;;;;28.73;33.19;99380.73;1593617;88;21066;-75
2022/06/09 09:07:23;;;;;;;4.17;2.17;;;;;;;28.73;32.94;99382.11;1605826;89;21165;-79
2022/06/09 09:09:47;;;;;;;5.00;2.17;;;;;;;28.71;33.09;99381.65;1605338;89;21113;-77
2022/06/09 09:12:53;;;;;;;6.58;2.08;;;;;;;28.70;32.62;99386.38;1612936;88;21065;-77
2022/06/09 09:15:40;;;;;;;5.62;3.17;;;;;;;28.67;32.70;99382.20;1596752;89;21104;-83
2022/06/09 09:18:37;;;;;;;7.75;2.52;;;;;;;28.62;33.00;99383.34;1582517;90;21008;-82
2022/06/09 09:21:39;;;;;;;3.22;2.50;;;;;;;28.61;33.52;99378.97;1585111;89;21083;-83
2022/06/09 09:24:35;;;;;;;3.10;2.30;;;;;;;28.67;33.25;99382.20;1608380;89;20972;-81
2022/06/09 09:27:16;;;;;;;6.15;2.72;;;;;;;28.71;33.39;99378.88;1595060;89;21118;-78
2022/06/09 09:29:57;;;;;;;8.03;3.08;;;;;;;28.77;33.17;99379.59;1609075;88;20998;-77
2022/06/09 09:32:28;;;;;;;3.40;2.25;;;;;;;28.78;32.47;99380.36;1604781;89;21051;-80
2022/06/09 09:34:57;;;;;;;6.15;3.08;;;;;;;28.74;32.70;99375.37;1607505;89;21242;-78
2022/06/09 09:37:38;;;;;;;7.33;2.75;;;;;;;28.72;32.99;99381.89;1585642;89;21600;-79
2022/06/09 09:40:13;;;;;;;7.33;2.72;;;;;;;28.71;33.32;99376.11;1607459;89;21008;-77
2022/06/09 09:42:42;;;;;;;4.62;2.08;;;;;;;28.75;32.82;99372.83;1608946;89;21111;-78
2022/06/09 09:45:17;;;;;;;4.60;1.98;;;;;;;28.80;32.42;99366.36;1585757;89;21536;-79
2022/06/09 09:47:53;;;;;;;3.33;2.05;;;;;;;28.82;31.72;99367.38;1610078;89;21756;-80
2022/06/09 09:50:51;;;;;;;4.55;2.67;;;;;;;28.88;31.38;99360.30;1609233;89;21026;-79
2022/06/09 09:53:28;;;;;;;2.55;2.10;;;;;;;28.97;31.50;99360.78;1608463;89;21572;-79
2022/06/09 09:56:18;;;;;;;5.65;2.37;;;;;;;29.07;30.83;99361.48;1581332;89;21039;-74
2022/06/09 09:58:57;;;;;;;3.27;2.30;;;;;;;29.06;31.00;99362.68;1609362;88;21057;-75
2022/06/09 10:01:29;;;;;;;3.92;2.40;;;;;;;29.13;31.30;99353.03;1627282;88;21251;-80
2022/06/09 10:09:52;;;;;;;4.33;1.62;;;;;;;29.22;30.95;99352.13;1642783;86;21537;-71
2022/06/09 10:12:33;;;;;;;3.50;1.75;;;;;;;29.28;31.13;99350.59;1641282;86;21088;-76
2022/06/09 10:15:11;;;;;;;3.00;2.50;;;;;;;29.30;31.49;99353.83;1650061;86;21224;-72
2022/06/09 10:18:01;;;;;;;6.92;2.35;;;;;;;29.37;31.53;99353.06;1652251;86;21016;-76
2022/06/09 10:20:43;;;;;;;2.35;2.25;;;;;;;29.43;32.36;99349.57;1609233;88;21046;-75
2022/06/09 10:23:26;;;;;;;6.03;2.27;;;;;;;29.53;32.05;99350.03;1609304;88;20975;-77
2022/06/09 10:26:00;;;;;;;4.78;2.30;;;;;;;29.48;30.83;99351.77;1652548;86;21059;-75
2022/06/09 10:28:44;;;;;;;1.98;1.75;;;;;;;29.48;31.51;99348.41;1652500;86;21300;-75
2022/06/09 10:31:34;;;;;;;2.33;2.12;;;;;;;29.64;31.67;99348.91;1653268;86;21033;-73
2022/06/09 10:34:15;;;;;;;3.98;2.58;;;;;;;29.85;31.71;99351.03;1610689;89;21084;-75
2022/06/09 10:36:55;;;;;;;12.25;2.70;;;;;;;29.96;31.38;99348.36;1618485;88;21553;-74
2022/06/09 10:40:00;;;;;;;4.30;2.20;;;;;;;30.09;31.22;99345.45;1609049;88;21091;-73
2022/06/09 10:42:53;;;;;;;3.20;2.42;;;;;;;30.15;30.31;99335.58;1619529;88;21162;-74
2022/06/09 10:45:50;;;;;;;1.90;1.80;;;;;;;30.01;29.96;99341.06;1610314;88;21067;-74
2022/06/09 10:57:47;;;;;;;4.45;2.37;;;;;;;30.19;29.59;99332.23;1610611;89;21397;-77
2022/06/09 11:00:18;;;;;;;2.42;2.17;;;;;;;30.39;30.42;99334.89;1653856;86;21068;-73
2022/06/09 11:02:53;;;;;;;4.65;2.62;;;;;;;30.44;30.15;99337.87;1653984;86;21596;-73
2022/06/09 11:05:26;;;;;;;6.92;2.85;;;;;;;30.41;30.19;99322.78;1610329;89;20956;-72
2022/06/09 11:08:19;;;;;;;4.03;3.65;;;;;;;30.48;30.78;99322.05;1608403;88;21130;-73
2022/06/09 11:11:27;;;;;;;2.87;2.42;;;;;;;30.59;30.37;99325.67;1645166;86;21140;-78
2022/06/09 11:14:05;;;;;;;3.67;2.40;;;;;;;30.72;30.31;99326.88;1631288;86;21582;-71
2022/06/09 11:16:55;;;;;;;1.50;1.40;;;;;;;30.90;30.09;99326.90;1609421;89;21064;-70
2022/06/09 11:19:30;;;;;;;2.15;1.95;;;;;;;30.96;28.53;99323.94;1609339;89;21099;-71
2022/06/09 11:22:12;;;;;;;3.72;2.08;;;;;;;30.85;28.45;99318.37;1652436;86;21063;-71
2022/06/09 11:24:59;;;;;;;;;;;;;;;30.79;29.17;99319.17;1611564;89;21263;-71
2022/06/09 11:27:43;;;;;;;3.83;2.30;;;;;;;30.80;29.20;99322.92;1612018;89;20154;-71
2022/06/09 11:30:38;;;;;;;2.02;1.80;;;;;;;30.79;28.26;99315.80;1609294;89;21044;-71
2022/06/09 11:33:47;;;;;;;2.15;1.80;;;;;;;30.79;28.37;99324.13;1585345;90;21224;-72
2022/06/09 11:36:35;;;;;;;2.62;1.87;;;;;;;30.77;28.77;99316.77;1585401;90;21105;-72
2022/06/09 11:39:20;;;;;;;3.08;1.70;;;;;;;30.80;27.79;99320.73;1604651;89;21620;-76
2022/06/09 11:42:07;;;;;;;2.67;2.05;;;;;;;30.79;27.86;99323.33;1608443;89;21018;-71
2022/06/09 11:44:39;;;;;;;3.33;1.98;;;;;;;30.91;27.61;99319.57;1609629;88;21099;-70
2022/06/09 11:47:16;;;;;;;3.90;1.90;;;;;;;31.00;27.69;99323.34;1618852;88;21033;-70
2022/06/09 11:49:51;;;;;;;4.15;1.92;;;;;;;30.94;27.88;99308.25;1628879;88;21088;-71
2022/06/09 11:52:32;;;;;;;2.10;2.00;;;;;;;30.87;28.10;99316.59;1599563;89;21808;-69
2022/06/09 11:55:06;;;;;;;2.00;1.90;;;;;;;30.92;28.55;99312.03;1612943;89;21132;-70
2022/06/09 11:57:47;;;;;;;3.42;1.77;;;;;;;30.88;28.38;99317.59;1613142;89;21136;-75
2022/06/09 12:00:36;;;;;;;6.37;1.90;;;;;;;30.78;28.54;99315.59;1611863;89;21691;-74
2022/06/09 12:03:29;;;;;;;6.90;1.92;;;;;;;30.71;28.57;99319.73;1611815;89;21512;-75
2022/06/09 12:06:20;;;;;;;3.00;1.85;;;;;;;30.79;29.56;99313.61;1611713;89;20969;-75
2022/06/09 12:09:06;;;;;;;2.87;2.33;;;;;;;30.93;29.20;99315.02;1611583;89;21099;-74
2022/06/09 12:11:54;;;;;;;2.45;2.25;;;;;;;31.11;29.19;99306.92;1610761;89;20973;-74
2022/06/09 12:14:29;;;;;;;7.08;3.05;;;;;;;31.16;29.58;99307.91;1608031;89;21568;-75
2022/06/09 12:17:11;;;;;;;16.02;2.87;;;;;;;31.18;29.71;99305.52;1607485;89;21108;-72
2022/06/09 12:19:59;;;;;;;5.42;2.67;;;;;;;31.25;29.59;99307.52;1613189;89;22386;-74
2022/06/09 12:22:49;;;;;;;10.55;3.00;;;;;;;31.18;29.55;99318.02;1613138;89;21359;-74